Aviation Digital Data Service (ADDS)

Output produced by METARs form (1015 UTC 07 December 2022)
found at http://www.aviationweather.gov/metar/data/
 
K1R7 070955Z AUTO 20005KT 8SM BKN006 OVC010 20/20 A3022 RMK AO2 PWINO
K1R7 070935Z AUTO VRB05KT 7SM OVC005 20/20 A3021 RMK AO2 PWINO
K1R7 070915Z AUTO 19006KT 6SM BR 20/20 A3021 RMK AO2 PWINO
K1R7 070855Z AUTO 20005KT 5SM BR BKN004 OVC007 19/19 A3021 RMK AO2 PWINO
K1R7 070835Z AUTO 20004KT 3SM BR 19/19 A3021 RMK AO2 PWINO
K1R7 070815Z AUTO 19005KT 1 1/2SM BR 19/19 A3020 RMK AO2 PWINO
K1R7 070755Z AUTO 19005KT 1 1/2SM BR 19/19 A3020 RMK AO2 PWINO
K1R7 070735Z AUTO 19005KT 3SM BR OVC003 19/19 A3019 RMK AO2 PWINO
K1R7 070715Z AUTO 18003KT 6SM BR OVC004 19/19 A3018 RMK AO2 PWINO
K1R7 070655Z AUTO 18004KT 7SM BKN005 BKN010 OVC018 19/19 A3018 RMK AO2 PWINO
K1R7 070635Z AUTO 17005KT 7SM SCT012 BKN016 BKN020 18/19 A3017 RMK AO2 PWINO
K1R7 070615Z AUTO 00000KT 7SM BKN015 BKN022 19/19 A3017 RMK AO2 PWINO
K1R7 070555Z AUTO 00000KT 7SM FEW010 18/18 A3017 RMK AO2 PWINO
K1R7 070535Z AUTO 00000KT 8SM FEW019 FEW024 FEW029 18/18 A3017 RMK AO2 PWINO
K1R7 070515Z AUTO 00000KT 9SM FEW012 SCT018 BKN029 18/18 A3017 RMK AO2 PWINO
K1R7 070455Z AUTO 18003KT 9SM FEW013 SCT018 BKN041 19/19 A3017 RMK AO2 PWINO
K1R7 070435Z AUTO 00000KT 10SM SCT041 19/19 A3016 RMK AO2 PWINO
K1R7 070415Z AUTO 00000KT 10SM CLR 19/19 A3016 RMK AO2 PWINO
K1R7 070355Z AUTO 00000KT 10SM CLR 19/19 A3015 RMK AO2 PWINO
K1R7 070335Z AUTO 18003KT 10SM CLR 19/19 A3014 RMK AO2 PWINO
K1R7 070315Z AUTO 17005KT 10SM CLR 19/19 A3013 RMK AO2 PWINO
K1R7 070255Z AUTO 18003KT 10SM CLR 20/20 A3013 RMK AO2 PWINO
K1R7 070235Z AUTO 17004KT 10SM CLR 20/20 A3012 RMK AO2 PWINO
K1R7 070215Z AUTO 00000KT 10SM FEW041 SCT049 20/20 A3012 RMK AO2 PWINO
K1R7 070155Z AUTO 00000KT 10SM FEW034 FEW041 SCT049 20/20 A3011 RMK AO2 PWINO
K1R7 070135Z AUTO 00000KT 10SM FEW027 SCT033 BKN042 20/20 A3011 RMK AO2 PWINO
K1R7 070115Z AUTO 18003KT 10SM SCT029 BKN034 OVC050 20/21 A3011 RMK AO2 PWINO
K1R7 070055Z AUTO 00000KT 10SM BKN034 BKN043 OVC050 20/20 A3011 RMK AO2 PWINO
K1R7 070035Z AUTO 00000KT 10SM BKN037 BKN045 OVC055 20/20 A3010 RMK AO2 PWINO
K1R7 070015Z AUTO 00000KT 10SM BKN039 BKN047 OVC055 20/20 A3009 RMK AO2 PWINO
K1R7 062355Z AUTO 00000KT 10SM BKN041 BKN048 OVC055 20/20 A3009 RMK AO2 PWINO
K1R7 062335Z AUTO 00000KT 10SM SCT043 SCT055 21/21 A3008 RMK AO2 PWINO
K1R7 062315Z AUTO 00000KT 10SM FEW045 21/21 A3007 RMK AO2 PWINO
K1R7 062255Z AUTO 00000KT 10SM CLR 22/22 A3007 RMK AO2 PWINO
K1R7 062235Z AUTO 00000KT 10SM FEW060 24/24 A3007 RMK AO2 PWINO
K1R7 062215Z AUTO 18004KT 10SM FEW060 25/25 A3007 RMK AO2 PWINO
K1R7 062155Z AUTO VRB04KT 10SM SCT036 SCT042 BKN060 25/25 A3007 RMK AO2 PWINO
K1R7 062135Z AUTO 20004KT 10SM SCT036 SCT042 BKN055 25/25 A3006 RMK AO2 PWINO
K1R7 062115Z AUTO 20007KT 10SM SCT037 SCT045 SCT060 25/25 A3006 RMK AO2 PWINO
K1R7 062055Z AUTO VRB04KT 10SM BKN038 BKN046 OVC055 25/25 A3005 RMK AO2 PWINO
K1R7 062035Z AUTO 18007KT 10SM FEW037 FEW042 OVC055 25/25 A3005 RMK AO2 PWINO
K1R7 062015Z AUTO 20006KT 10SM FEW037 SCT044 OVC055 25/25 A3005 RMK AO2 PWINO
K1R7 061955Z AUTO 19009KT 10SM FEW035 OVC055 25/25 A3005 RMK AO2 PWINO
K1R7 061935Z AUTO 17009KT 10SM BKN055 26/26 A3005 RMK AO2 PWINO
K1R7 061915Z AUTO 19008G17KT 10SM FEW035 FEW044 BKN055 25/25 A3006 RMK AO2 PWINO
K1R7 061855Z AUTO 20008G14KT 10SM FEW032 FEW045 BKN055 25/25 A3006 RMK AO2 PWINO
K1R7 061835Z AUTO 20008G15KT 10SM SCT031 SCT036 BKN055 25/25 A3007 RMK AO2 PWINO
K1R7 061815Z AUTO 21007G13KT 10SM SCT030 BKN043 OVC050 24/24 A3008 RMK AO2 PWINO
K1R7 061755Z AUTO 21007KT 10SM SCT027 BKN033 OVC050 25/25 A3008 RMK AO2 PWINO
K1R7 061735Z AUTO 20012G18KT 10SM SCT025 BKN034 OVC050 24/24 A3009 RMK AO2 PWINO
K1R7 061715Z AUTO 19010KT 10SM BKN022 BKN031 BKN040 24/24 A3009 RMK AO2 PWINO
K1R7 061655Z AUTO 19010G16KT 10SM BKN022 BKN028 OVC046 23/23 A3009 RMK AO2 PWINO
K1R7 061635Z AUTO 18008G15KT 10SM FEW020 SCT024 BKN037 23/23 A3010 RMK AO2 PWINO
K1R7 061615Z AUTO 20009KT 10SM FEW019 SCT024 BKN031 23/23 A3010 RMK AO2 PWINO
K1R7 061555Z AUTO 20008KT 10SM SCT018 SCT022 BKN044 22/22 A3011 RMK AO2 PWINO
K1R7 061535Z AUTO VRB07G14KT 180V250 10SM BKN016 OVC021 22/22 A3010 RMK AO2 PWINO
K1R7 061515Z AUTO 19008KT 10SM BKN014 BKN020 BKN032 22/22 A3010 RMK AO2 PWINO
K1R7 061455Z AUTO VRB05KT 9SM SCT010 BKN013 BKN027 21/21 A3010 RMK AO2 PWINO
K1R7 061435Z AUTO 18007KT 9SM SCT008 BKN011 BKN039 20/20 A3009 RMK AO2 PWINO
K1R7 061415Z AUTO 18006KT 7SM BKN007 BKN011 BKN016 19/19 A3008 RMK AO2 PWINO
K1R7 061355Z AUTO 18005KT 7SM BKN008 OVC013 19/19 A3008 RMK AO2 PWINO
K1R7 061335Z AUTO 17004KT 7SM 19/19 A3007 RMK AO2 PWINO
K1R7 061315Z AUTO 18005KT 6SM BR 19/19 A3007 RMK AO2 PWINO
K1R7 061255Z AUTO 16004KT 6SM BR FEW005 FEW009 FEW013 19/19 A3006 RMK AO2 PWINO
K1R7 061235Z AUTO 17004KT 8SM SCT008 SCT014 19/19 A3005 RMK AO2 PWINO
K1R7 061215Z AUTO 17005KT 9SM BKN009 OVC014 19/19 A3005 RMK AO2 PWINO
K1R7 061155Z AUTO 00000KT 9SM BKN010 BKN014 OVC029 19/19 A3004 RMK AO2 PWINO
K1R7 061135Z AUTO 00000KT 10SM BKN009 BKN013 OVC019 19/19 A3004 RMK AO2 PWINO
K1R7 061115Z AUTO 00000KT 10SM BKN011 OVC016 20/20 A3004 RMK AO2 PWINO
K1R7 061055Z AUTO 00000KT 10SM BKN011 OVC019 20/20 A3003 RMK AO2 PWINO
K1R7 061035Z AUTO 18003KT 10SM BKN011 OVC021 20/20 A3003 RMK AO2 PWINO
K1R7 061015Z AUTO 19006KT 10SM BKN012 OVC022 20/20 A3002 RMK AO2 PWINO
K1R7 060955Z AUTO 18006KT 10SM BKN012 OVC016 20/20 A3002 RMK AO2 PWINO
K1R7 060935Z AUTO 19007KT 10SM BKN012 OVC018 20/20 A3002 RMK AO2 PWINO
K1R7 060915Z AUTO 19006KT 10SM BKN013 OVC017 20/20 A3002 RMK AO2 PWINO
K1R7 060855Z AUTO 18006KT 10SM BKN013 OVC018 20/20 A3002 RMK AO2 PWINO
K1R7 060835Z AUTO 18006KT 10SM BKN012 OVC018 20/20 A3002 RMK AO2 PWINO
K1R7 060815Z AUTO 18008KT 10SM BKN012 OVC017 20/20 A3001 RMK AO2 PWINO
K1R7 060755Z AUTO 18009KT 10SM OVC013 20/20 A3001 RMK AO2 PWINO
K1R7 060735Z AUTO 18007KT 10SM BKN012 OVC017 20/20 A3001 RMK AO2 PWINO
K1R7 060715Z AUTO 18007KT 10SM OVC011 20/20 A3001 RMK AO2 PWINO
K1R7 060655Z AUTO 18007KT 10SM BKN010 OVC014 20/20 A3000 RMK AO2 PWINO
K1R7 060635Z AUTO 18010KT 10SM OVC010 20/20 A3000 RMK AO2 PWINO
K1R7 060615Z AUTO 18008KT 10SM BKN009 OVC013 20/20 A3000 RMK AO2 PWINO
K1R7 060555Z AUTO 20007G13KT 10SM OVC008 20/20 A3001 RMK AO2 PWINO
K1R7 060535Z AUTO 19009KT 10SM OVC009 20/20 A3000 RMK AO2 PWINO
K1R7 060515Z AUTO 19010KT 10SM OVC009 20/20 A3000 RMK AO2 PWINO
K1R7 060455Z AUTO 18009KT 10SM OVC008 20/20 A2999 RMK AO2 PWINO
K1R7 060435Z AUTO 19009KT 10SM OVC008 20/20 A2999 RMK AO2 PWINO
K1R7 060415Z AUTO 19007KT 160V220 10SM OVC010 19/19 A3000 RMK AO2 PWINO
K1R7 060355Z AUTO 19006KT 10SM BKN010 19/19 A2999 RMK AO2 PWINO
K1R7 060335Z AUTO 19006KT 10SM SCT012 19/19 A2999 RMK AO2 PWINO
K1R7 060315Z AUTO 18007KT 10SM SCT011 19/19 A2999 RMK AO2 PWINO
K1R7 060255Z AUTO 18007KT 10SM SCT009 19/19 A2998 RMK AO2 PWINO
K1R7 060235Z AUTO 18006KT 10SM SCT009 SCT021 20/20 A2998 RMK AO2 PWINO
K1R7 060215Z AUTO 18008KT 10SM SCT008 BKN060 20/20 A2999 RMK AO2 PWINO
K1R7 060155Z AUTO 17006KT 10SM OVC060 20/20 A2999 RMK AO2 PWINO
K1R7 060135Z AUTO 16006KT 10SM FEW018 FEW026 OVC070 20/20 A2999 RMK AO2 PWINO
K1R7 060115Z AUTO 15007KT 10SM SCT026 SCT032 OVC070 20/20 A2998 RMK AO2 PWINO
K1R7 060055Z AUTO 16005KT 10SM FEW019 SCT027 BKN033 20/20 A2999 RMK AO2 PWINO
K1R7 060035Z AUTO 17006KT 10SM FEW019 SCT027 BKN033 20/21 A2998 RMK AO2 PWINO
K1R7 060015Z AUTO 17008KT 10SM FEW020 SCT030 BKN045 21/21 A2998 RMK AO2 PWINO
K1R7 052355Z AUTO 00000KT 10SM FEW028 BKN046 OVC075 21/21 A2998 RMK AO2 PWINO
K1R7 052335Z AUTO 00000KT 10SM FEW025 SCT030 BKN044 21/21 A2998 RMK AO2 PWINO
K1R7 052315Z AUTO 16004KT 10SM SCT024 BKN030 OVC050 21/21 A2997 RMK AO2 PWINO
K1R7 052255Z AUTO 00000KT 10SM FEW022 SCT030 OVC055 22/22 A2997 RMK AO2 PWINO
K1R7 052235Z AUTO 18006KT 10SM FEW024 BKN055 OVC075 22/22 A2996 RMK AO2 PWINO
K1R7 052215Z AUTO 18007KT 10SM SCT024 BKN033 OVC075 22/23 A2996 RMK AO2 PWINO
K1R7 052155Z AUTO 19005KT 10SM SCT022 BKN029 OVC070 23/23 A2997 RMK AO2 PWINO
K1R7 052135Z AUTO 17007KT 10SM SCT023 OVC070 23/23 A2996 RMK AO2 PWINO
K1R7 052115Z AUTO 17007KT 10SM FEW060 OVC070 23/23 A2996 RMK AO2 PWINO
K1R7 052055Z AUTO 19006KT 10SM FEW022 SCT030 OVC070 23/23 A2997 RMK AO2 PWINO
K1R7 052035Z AUTO 19008KT 10SM SCT021 SCT032 OVC070 22/22 A2997 RMK AO2 PWINO
K1R7 052015Z AUTO 18006KT 10SM OVC070 22/22 A2997 RMK AO2 PWINO
K1R7 051955Z AUTO 17008KT 10SM SCT019 BKN023 OVC070 22/22 A2997 RMK AO2 PWINO
K1R7 051935Z AUTO 19005KT 10SM SCT018 OVC065 21/21 A2999 RMK AO2 PWINO
K1R7 051915Z AUTO 18006KT 10SM FEW015 OVC065 21/21 A2999 RMK AO2 PWINO
K1R7 051855Z AUTO 18008KT 8SM SCT014 OVC065 21/21 A2999 RMK AO2 PWINO
K1R7 051835Z AUTO 19006KT 9SM BKN012 OVC065 20/20 A3000 RMK AO2 PWINO
K1R7 051815Z AUTO 18005KT 9SM OVC012 20/20 A3002 RMK AO2 PWINO
K1R7 051755Z AUTO 19008KT 8SM BKN010 OVC013 19/19 A3002 RMK AO2 PWINO
K1R7 051735Z AUTO 18007KT 8SM OVC010 19/19 A3003 RMK AO2 PWINO
K1R7 051715Z AUTO 19005KT 8SM OVC010 19/19 A3004 RMK AO2 PWINO
K1R7 051655Z AUTO VRB06KT 8SM OVC010 19/19 A3005 RMK AO2 PWINO
K1R7 051635Z AUTO 19007G13KT 7SM OVC010 19/19 A3006 RMK AO2 PWINO
K1R7 051615Z AUTO 19007KT 160V220 6SM BR 19/19 A3006 RMK AO2 PWINO
K1R7 051555Z AUTO 17008KT 6SM BR 19/19 A3006 RMK AO2 PWINO
K1R7 051535Z AUTO 18006KT 6SM BR 19/19 A3007 RMK AO2 PWINO
K1R7 051515Z AUTO 17007KT 6SM BR 18/18 A3007 RMK AO2 PWINO
K1R7 051455Z AUTO 19009KT 6SM BR BKN009 OVC065 18/18 A3007 RMK AO2 PWINO
K1R7 051435Z AUTO 18007KT 7SM 18/18 A3007 RMK AO2 PWINO
K1R7 051415Z AUTO 19008KT 6SM BR 18/18 A3007 RMK AO2 PWINO
K1R7 051355Z AUTO 18007KT 6SM BR 18/18 A3006 RMK AO2 PWINO
K1R7 051335Z AUTO 19007KT 6SM BR 17/17 A3006 RMK AO2 PWINO
K1R7 051315Z AUTO 19007KT 5SM BR OVC008 17/17 A3005 RMK AO2 PWINO
K1R7 051255Z AUTO 19006KT 5SM BR 17/17 A3005 RMK AO2 PWINO
K1R7 051235Z AUTO VRB06G11KT 6SM BR BKN007 OVC010 17/17 A3005 RMK AO2 PWINO
K1R7 051215Z AUTO 19006KT 3SM BR OVC005 17/17 A3005 RMK AO2 PWINO
K1R7 051155Z AUTO 20006KT 5SM BR BKN006 OVC010 17/17 A3004 RMK AO2 PWINO
K1R7 051135Z AUTO 20006KT 2 1/2SM BR 17/17 A3004 RMK AO2 PWINO
K1R7 051115Z AUTO VRB05KT 1SM BR OVC003 17/17 A3004 RMK AO2 PWINO
K1R7 051055Z AUTO VRB05KT 3/4SM BR OVC003 17/17 A3004 RMK AO2 PWINO
K1R7 051035Z AUTO VRB06KT 3/4SM BR OVC003 17/17 A3004 RMK AO2 PWINO
K1R7 050955Z AUTO VRB05KT 3SM BR OVC003 16/17 A3005 RMK AO2 PWINO
K1R7 050935Z AUTO VRB05KT 4SM BR OVC004 16/17 A3005 RMK AO2 PWINO
K1R7 050915Z AUTO 00000KT 4SM BR OVC004 16/16 A3005 RMK AO2 PWINO
K1R7 050855Z AUTO 16004KT 4SM BR OVC004 16/16 A3006 RMK AO2 PWINO
K1R7 050835Z AUTO VRB04KT 4SM BR OVC004 16/16 A3007 RMK AO2 PWINO
K1R7 050815Z AUTO 00000KT 4SM BR OVC004 16/16 A3007 RMK AO2 PWINO
K1R7 050755Z AUTO 00000KT 4SM BR 16/16 A3008 RMK AO2 PWINO
K1R7 050735Z AUTO VRB06KT 5SM BR BKN005 OVC008 16/16 A3007 RMK AO2 PWINO
K1R7 050715Z AUTO VRB06KT 4SM BR OVC006 16/16 A3007 RMK AO2 PWINO
K1R7 050655Z AUTO 17007KT 120V240 5SM BR OVC004 16/16 A3008 RMK AO2 PWINO
K1R7 050635Z AUTO VRB06KT 8SM OVC005 15/16 A3009 RMK AO2 PWINO
K1R7 050615Z AUTO 15004KT 9SM OVC006 15/15 A3009 RMK AO2 PWINO
K1R7 050555Z AUTO 00000KT 9SM OVC006 15/15 A3010 RMK AO2 PWINO
K1R7 050535Z AUTO 00000KT 10SM OVC006 15/15 A3011 RMK AO2 PWINO
K1R7 050515Z AUTO 00000KT 9SM OVC007 15/15 A3012 RMK AO2 PWINO
K1R7 050455Z AUTO 00000KT 10SM OVC005 15/15 A3012 RMK AO2 PWINO
K1R7 050435Z AUTO 00000KT 10SM OVC006 15/15 A3013 RMK AO2 PWINO
K1R7 050415Z AUTO 00000KT 10SM OVC007 15/15 A3014 RMK AO2 PWINO
K1R7 050355Z AUTO 00000KT 10SM OVC008 15/15 A3015 RMK AO2 PWINO
K1R7 050335Z AUTO 00000KT 10SM OVC008 15/15 A3015 RMK AO2 PWINO
K1R7 050315Z AUTO 00000KT 10SM OVC008 15/15 A3015 RMK AO2 PWINO
K1R7 050255Z AUTO 00000KT 10SM OVC009 15/16 A3016 RMK AO2 PWINO
K1R7 050235Z AUTO 00000KT 10SM OVC011 16/16 A3016 RMK AO2 PWINO
K1R7 050215Z AUTO VRB03KT 10SM OVC011 16/16 A3017 RMK AO2 PWINO
K1R7 050155Z AUTO 00000KT 9SM BKN011 OVC015 16/16 A3017 RMK AO2 PWINO
K1R7 050135Z AUTO 00000KT 10SM OVC015 16/16 A3017 RMK AO2 PWINO
K1R7 050115Z AUTO 00000KT 10SM OVC015 16/16 A3016 RMK AO2 PWINO
K1R7 050055Z AUTO 00000KT 10SM OVC015 16/16 A3017 RMK AO2 PWINO
K1R7 050035Z AUTO 00000KT 10SM OVC015 16/16 A3017 RMK AO2 PWINO
K1R7 050015Z AUTO 00000KT 10SM OVC015 15/15 A3016 RMK AO2 PWINO
K1R7 042355Z AUTO 00000KT 10SM OVC016 15/15 A3016 RMK AO2 PWINO
K1R7 042335Z AUTO 00000KT 9SM BKN018 BKN025 15/15 A3016 RMK AO2 PWINO
K1R7 042315Z AUTO 00000KT 9SM CLR 16/16 A3015 RMK AO2 PWINO
K1R7 042255Z AUTO 00000KT 8SM CLR 16/16 A3015 RMK AO2 PWINO
K1R7 042235Z AUTO 00000KT 9SM FEW018 SCT055 16/17 A3015 RMK AO2 PWINO
K1R7 042215Z AUTO 00000KT 9SM BKN016 OVC055 17/17 A3016 RMK AO2 PWINO
K1R7 042155Z AUTO 00000KT 9SM OVC015 18/18 A3017 RMK AO2 PWINO
K1R7 042135Z AUTO 00000KT 10SM OVC014 18/18 A3017 RMK AO2 PWINO
K1R7 042115Z AUTO 00000KT 10SM BKN016 OVC060 18/18 A3017 RMK AO2 PWINO
K1R7 042055Z AUTO 00000KT 10SM BKN015 OVC060 17/18 A3017 RMK AO2 PWINO
K1R7 042035Z AUTO 00000KT 9SM OVC014 17/17 A3018 RMK AO2 PWINO
K1R7 042015Z AUTO 00000KT 9SM OVC014 18/18 A3019 RMK AO2 PWINO
K1R7 041955Z AUTO 00000KT 9SM OVC013 17/18 A3020 RMK AO2 PWINO
K1R7 041935Z AUTO VRB03KT 10SM OVC012 18/18 A3021 RMK AO2 PWINO
K1R7 041915Z AUTO 00000KT 10SM OVC011 17/18 A3021 RMK AO2 PWINO
K1R7 041855Z AUTO 00000KT 10SM BKN010 BKN013 BKN055 17/17 A3022 RMK AO2 PWINO
K1R7 041835Z AUTO 00000KT 10SM BKN013 BKN055 17/17 A3022 RMK AO2 PWINO
K1R7 041815Z AUTO 00000KT 10SM SCT009 BKN013 16/16 A3024 RMK AO2 PWINO
K1R7 041755Z AUTO 00000KT 10SM BKN010 OVC015 16/16 A3025 RMK AO2 PWINO
K1R7 041735Z AUTO 00000KT 10SM OVC010 15/15 A3027 RMK AO2 PWINO
K1R7 041555Z AUTO 00000KT 7SM BKN006 OVC013 12/12 A3032 RMK AO2 PWINO
K1R7 041535Z AUTO 00000KT 8SM OVC006 12/12 A3032 RMK AO2 PWINO
K1R7 041515Z AUTO 00000KT 5SM BR OVC004 12/12 A3031 RMK AO2 PWINO
K1R7 041455Z AUTO 00000KT 6SM BR OVC004 11/11 A3031 RMK AO2 PWINO
K1R7 041435Z AUTO 08004KT 6SM BR OVC004 11/11 A3031 RMK AO2 PWINO
K1R7 041415Z AUTO 00000KT 5SM BR OVC004 11/11 A3031 RMK AO2 PWINO
K1R7 041355Z AUTO 00000KT 5SM BR OVC004 11/11 A3030 RMK AO2 PWINO
K1R7 041335Z AUTO 00000KT 7SM OVC004 10/10 A3030 RMK AO2 PWINO
K1R7 041315Z AUTO 00000KT 10SM OVC005 10/10 A3029 RMK AO2 PWINO
K1R7 041255Z AUTO 00000KT 10SM OVC005 10/10 A3029 RMK AO2 PWINO
K1R7 041235Z AUTO 00000KT 10SM OVC005 10/10 A3028 RMK AO2 PWINO
K1R7 041215Z AUTO 00000KT 10SM OVC005 10/10 A3028 RMK AO2 PWINO
K1R7 041155Z AUTO 00000KT 10SM BKN005 OVC044 10/10 A3027 RMK AO2 PWINO
K1R7 041135Z AUTO 00000KT 10SM FEW006 OVC044 10/10 A3027 RMK AO2 PWINO
K1R7 041115Z AUTO 00000KT 10SM BKN007 OVC044 10/10 A3027 RMK AO2 PWINO
K1R7 041055Z AUTO 00000KT 10SM OVC007 10/10 A3027 RMK AO2 PWINO
K1R7 041035Z AUTO 00000KT 10SM OVC007 10/10 A3027 RMK AO2 PWINO